Airfield :
LOGIN :

Register | Disclaimer

   EN    FR    IT 

 










Legend :    VFR   Marginal VFR   IFR   Intensive IFR   Very Intensive IFR
Visi :
Ceiling :
>= 8 km
>= 3000ft
5 to 8 km
1000 to 3000 ft
1500m to 5 km
500 to 1000 ft
800 to 1500m
200 to 500 ft
< 800m
< 200 ft
Symbols :   Thunderstorms  Fog  Heavy snow  Heavy precipitations  Wind > 20 kt
SIGMETs :     Misc.  Thunderstorms  Icing  Turbulence  Mountain Waves  Volcanic Ashes







- Airport Elevation : 18 ft
- IATA code : AJA
- Download approach charts


LFKJ - Ajaccio

CURRENT METAR :
  • 262030Z AUTO 00000KT 8000 BKN014 BKN086 OVC130 16/15 Q1007 TEMPO RA

EXPIRED METARs :
  • 262000Z AUTO 00000KT 8000 FEW015 SCT074 BKN092 16/14 Q1007 TEMPO RA BKN010
  • 261930Z AUTO 00000KT 9999 FEW016 BKN084 OVC120 16/14 Q1007 TEMPO RA BKN010
  • 261900Z AUTO 00000KT 9999 BKN015 OVC098 16/14 Q1007 TEMPO 4000 SHRA BKN025 FEW030TCU BKN050
  • 261830Z AUTO 22002KT 9999 BKN015 BKN064 OVC110 17/14 Q1007 TEMPO 4000 SHRA BKN025 FEW030TCU BKN050
  • 261800Z AUTO 00000KT 9999 BKN014 BKN066 OVC088 17/14 Q1007 TEMPO 4000 SHRA BKN025 FEW030TCU BKN050

TAF TAF LFKJ
Valid from the 26 at 21:00 until the 27 at 21:00 UTC


262000Z 2621/2721 22005KT 9999 FEW015 BKN060 BKN100
TEMPO 2621/2717 RA
PROB40
TEMPO 2621/2708 BKN010
PROB40
TEMPO 2710/2715 FEW035TCU
PROB40
TEMPO 2715/2717 TS BKN025 FEW030CB BKN050 BKN080
BECMG 2717/2719 32010KT
ATIS : +33 4 95 23 59 85
No reported NOTAMs for that airfield.
1 SIGMET reported for the Marseille FIR (LFMM) :
 
Severe turbulence
LFMM SIGMET 6 VALID 261900/262100 LFPW
LFMM MARSEILLE FIR/UIR SEV TURB FCST WI N4145 E00430 - N4200 E00430 - N4215 E00345 - N4345 E00445 - N4530 E00645 - N4145 E00430 FL260/340 STNR WKN=



MET'MAP, your aeronautical weather chart ! - Copyright ORBIFLY December 2007 - Disclaimer

ORBIFLY MET'MAP TEAM :

Programming & Development : Alexandra Zaïnal
Concept & Development : Baudouin d'Aumeries
Co-Development & Prog : Marc-Olivier Méhu
Technical & hardware support : Manuel Goepfert

Contact : metmap@orbifly.com




SOURCES & CREDITS :

   NOAA